sensor_id;sensor_type;location;lat;lon;timestamp;temperature;humidity
19906;DHT22;10115;50.906;4.438;2022-12-18T00:01:33;-4.60;99.90
19906;DHT22;10115;50.906;4.438;2022-12-18T00:04:01;-4.70;99.90
19906;DHT22;10115;50.906;4.438;2022-12-18T00:06:28;-4.70;99.90
19906;DHT22;10115;50.906;4.438;2022-12-18T00:08:55;-4.70;99.90
19906;DHT22;10115;50.906;4.438;2022-12-18T00:11:23;-4.80;99.90
19906;DHT22;10115;50.906;4.438;2022-12-18T00:13:50;-4.80;99.90
19906;DHT22;10115;50.906;4.438;2022-12-18T00:16:19;-5.00;99.90
19906;DHT22;10115;50.906;4.438;2022-12-18T00:18:46;-5.00;99.90
19906;DHT22;10115;50.906;4.438;2022-12-18T00:21:12;-4.80;99.90
19906;DHT22;10115;50.906;4.438;2022-12-18T00:23:40;-4.90;99.90
19906;DHT22;10115;50.906;4.438;2022-12-18T00:26:10;-4.90;99.90
19906;DHT22;10115;50.906;4.438;2022-12-18T00:28:36;-5.00;99.90
19906;DHT22;10115;50.906;4.438;2022-12-18T00:31:13;-5.00;99.90
19906;DHT22;10115;50.906;4.438;2022-12-18T00:33:39;-4.90;99.90
19906;DHT22;10115;50.906;4.438;2022-12-18T00:36:09;-5.00;99.90
19906;DHT22;10115;50.906;4.438;2022-12-18T00:38:35;-5.10;99.90
19906;DHT22;10115;50.906;4.438;2022-12-18T00:41:01;-5.10;99.90
19906;DHT22;10115;50.906;4.438;2022-12-18T00:43:27;-4.90;99.90
19906;DHT22;10115;50.906;4.438;2022-12-18T00:45:53;-5.20;99.90
19906;DHT22;10115;50.906;4.438;2022-12-18T00:48:19;-5.30;99.90
19906;DHT22;10115;50.906;4.438;2022-12-18T00:50:45;-5.20;99.90
19906;DHT22;10115;50.906;4.438;2022-12-18T00:53:11;-5.20;99.90
19906;DHT22;10115;50.906;4.438;2022-12-18T00:55:40;-5.10;99.90
19906;DHT22;10115;50.906;4.438;2022-12-18T00:58:07;-5.00;99.90
19906;DHT22;10115;50.906;4.438;2022-12-18T01:00:32;-5.20;99.90
19906;DHT22;10115;50.906;4.438;2022-12-18T01:02:58;-5.20;99.90
19906;DHT22;10115;50.906;4.438;2022-12-18T01:05:24;-5.30;99.90
19906;DHT22;10115;50.906;4.438;2022-12-18T01:07:50;-5.20;99.90
19906;DHT22;10115;50.906;4.438;2022-12-18T01:10:16;-5.40;99.90
19906;DHT22;10115;50.906;4.438;2022-12-18T01:12:41;-5.30;99.90
19906;DHT22;10115;50.906;4.438;2022-12-18T01:15:07;-5.30;99.90
19906;DHT22;10115;50.906;4.438;2022-12-18T01:17:34;-5.40;99.90
19906;DHT22;10115;50.906;4.438;2022-12-18T01:20:00;-5.50;99.90
19906;DHT22;10115;50.906;4.438;2022-12-18T01:22:26;-5.40;99.90
19906;DHT22;10115;50.906;4.438;2022-12-18T01:24:52;-5.60;99.90
19906;DHT22;10115;50.906;4.438;2022-12-18T01:27:17;-5.70;99.90
19906;DHT22;10115;50.906;4.438;2022-12-18T01:29:43;-5.60;99.90
19906;DHT22;10115;50.906;4.438;2022-12-18T01:32:09;-5.60;99.90
19906;DHT22;10115;50.906;4.438;2022-12-18T01:34:38;-5.30;99.90
19906;DHT22;10115;50.906;4.438;2022-12-18T01:37:06;-5.40;99.90
19906;DHT22;10115;50.906;4.438;2022-12-18T01:39:32;-5.40;99.90
19906;DHT22;10115;50.906;4.438;2022-12-18T01:42:18;-5.40;99.90
19906;DHT22;10115;50.906;4.438;2022-12-18T01:47:50;-5.50;99.90
19906;DHT22;10115;50.906;4.438;2022-12-18T01:53:21;-5.60;99.90
19906;DHT22;10115;50.906;4.438;2022-12-18T01:55:57;-5.50;99.90
19906;DHT22;10115;50.906;4.438;2022-12-18T01:58:46;-5.70;99.90
19906;DHT22;10115;50.906;4.438;2022-12-18T02:01:14;-5.90;99.90
19906;DHT22;10115;50.906;4.438;2022-12-18T02:03:43;-5.90;99.90
19906;DHT22;10115;50.906;4.438;2022-12-18T02:06:24;-5.80;99.90
19906;DHT22;10115;50.906;4.438;2022-12-18T02:09:02;-5.90;99.90
19906;DHT22;10115;50.906;4.438;2022-12-18T02:11:46;-5.90;99.90
19906;DHT22;10115;50.906;4.438;2022-12-18T02:17:16;-5.80;99.90
19906;DHT22;10115;50.906;4.438;2022-12-18T02:22:21;-5.90;99.90
19906;DHT22;10115;50.906;4.438;2022-12-18T02:27:24;-5.90;99.90
19906;DHT22;10115;50.906;4.438;2022-12-18T02:29:51;-5.90;99.90
19906;DHT22;10115;50.906;4.438;2022-12-18T02:32:25;-6.00;99.90
19906;DHT22;10115;50.906;4.438;2022-12-18T02:34:55;-6.10;99.90
19906;DHT22;10115;50.906;4.438;2022-12-18T02:37:23;-6.10;99.90
19906;DHT22;10115;50.906;4.438;2022-12-18T02:39:51;-6.20;99.90
19906;DHT22;10115;50.906;4.438;2022-12-18T02:42:18;-6.20;99.90
19906;DHT22;10115;50.906;4.438;2022-12-18T02:44:47;-6.10;99.90
19906;DHT22;10115;50.906;4.438;2022-12-18T02:47:15;-6.00;99.90
19906;DHT22;10115;50.906;4.438;2022-12-18T02:52:37;-6.00;99.90
19906;DHT22;10115;50.906;4.438;2022-12-18T03:00:51;-5.80;99.90
19906;DHT22;10115;50.906;4.438;2022-12-18T03:03:31;-5.80;99.90
19906;DHT22;10115;50.906;4.438;2022-12-18T03:06:08;-5.90;99.90
19906;DHT22;10115;50.906;4.438;2022-12-18T03:08:42;-6.00;99.90
19906;DHT22;10115;50.906;4.438;2022-12-18T03:11:12;-5.90;99.90
19906;DHT22;10115;50.906;4.438;2022-12-18T03:13:47;-5.90;99.90
19906;DHT22;10115;50.906;4.438;2022-12-18T03:16:22;-5.80;99.90
19906;DHT22;10115;50.906;4.438;2022-12-18T03:19:01;-5.90;99.90
19906;DHT22;10115;50.906;4.438;2022-12-18T03:21:55;-5.90;99.90
19906;DHT22;10115;50.906;4.438;2022-12-18T03:24:20;-5.90;99.90
19906;DHT22;10115;50.906;4.438;2022-12-18T03:26:52;-5.90;99.90
19906;DHT22;10115;50.906;4.438;2022-12-18T03:29:46;-5.90;99.90
19906;DHT22;10115;50.906;4.438;2022-12-18T03:32:16;-5.80;99.90
19906;DHT22;10115;50.906;4.438;2022-12-18T03:34:44;-5.90;99.90
19906;DHT22;10115;50.906;4.438;2022-12-18T03:37:11;-5.90;99.90
19906;DHT22;10115;50.906;4.438;2022-12-18T03:39:37;-6.00;99.90
19906;DHT22;10115;50.906;4.438;2022-12-18T03:44:36;-5.90;99.90
19906;DHT22;10115;50.906;4.438;2022-12-18T03:49:45;-5.90;99.90
19906;DHT22;10115;50.906;4.438;2022-12-18T03:52:14;-5.90;99.90
19906;DHT22;10115;50.906;4.438;2022-12-18T03:54:43;-5.90;99.90
19906;DHT22;10115;50.906;4.438;2022-12-18T03:57:16;-5.90;99.90
19906;DHT22;10115;50.906;4.438;2022-12-18T03:59:44;-5.90;99.90
19906;DHT22;10115;50.906;4.438;2022-12-18T04:02:11;-5.80;99.90
19906;DHT22;10115;50.906;4.438;2022-12-18T04:04:38;-5.80;99.90
19906;DHT22;10115;50.906;4.438;2022-12-18T04:07:05;-5.70;99.90
19906;DHT22;10115;50.906;4.438;2022-12-18T04:09:33;-6.00;99.90
19906;DHT22;10115;50.906;4.438;2022-12-18T04:11:59;-6.00;99.90
19906;DHT22;10115;50.906;4.438;2022-12-18T04:14:25;-6.10;99.90
19906;DHT22;10115;50.906;4.438;2022-12-18T04:16:50;-6.10;99.90
19906;DHT22;10115;50.906;4.438;2022-12-18T04:19:16;-6.10;99.90
19906;DHT22;10115;50.906;4.438;2022-12-18T04:21:42;-6.00;99.90
19906;DHT22;10115;50.906;4.438;2022-12-18T04:24:07;-5.90;99.90
19906;DHT22;10115;50.906;4.438;2022-12-18T04:26:33;-6.10;99.90
19906;DHT22;10115;50.906;4.438;2022-12-18T04:28:59;-6.00;99.90
19906;DHT22;10115;50.906;4.438;2022-12-18T04:31:25;-6.20;99.90
19906;DHT22;10115;50.906;4.438;2022-12-18T04:33:51;-6.20;99.90
19906;DHT22;10115;50.906;4.438;2022-12-18T04:36:17;-6.20;99.90
19906;DHT22;10115;50.906;4.438;2022-12-18T04:38:43;-6.10;99.90
19906;DHT22;10115;50.906;4.438;2022-12-18T04:41:09;-6.10;99.90
19906;DHT22;10115;50.906;4.438;2022-12-18T04:43:34;-6.00;99.90
19906;DHT22;10115;50.906;4.438;2022-12-18T04:46:07;-6.00;99.90
19906;DHT22;10115;50.906;4.438;2022-12-18T04:48:33;-6.00;99.90
19906;DHT22;10115;50.906;4.438;2022-12-18T04:50:59;-5.90;99.90
19906;DHT22;10115;50.906;4.438;2022-12-18T04:53:25;-5.80;99.90
19906;DHT22;10115;50.906;4.438;2022-12-18T04:56:01;-6.10;99.90
19906;DHT22;10115;50.906;4.438;2022-12-18T04:58:27;-6.00;99.90
19906;DHT22;10115;50.906;4.438;2022-12-18T05:00:52;-5.90;99.90
19906;DHT22;10115;50.906;4.438;2022-12-18T05:03:18;-5.90;99.90
19906;DHT22;10115;50.906;4.438;2022-12-18T05:05:43;-6.00;99.90
19906;DHT22;10115;50.906;4.438;2022-12-18T05:08:09;-5.90;99.90
19906;DHT22;10115;50.906;4.438;2022-12-18T05:10:35;-6.10;99.90
19906;DHT22;10115;50.906;4.438;2022-12-18T05:13:00;-6.10;99.90
19906;DHT22;10115;50.906;4.438;2022-12-18T05:15:31;-6.10;99.90
19906;DHT22;10115;50.906;4.438;2022-12-18T05:17:57;-6.00;99.90
19906;DHT22;10115;50.906;4.438;2022-12-18T05:20:24;-6.00;99.90
19906;DHT22;10115;50.906;4.438;2022-12-18T05:22:50;-6.20;99.90
19906;DHT22;10115;50.906;4.438;2022-12-18T05:25:16;-6.20;99.90
19906;DHT22;10115;50.906;4.438;2022-12-18T05:27:42;-6.20;99.90
19906;DHT22;10115;50.906;4.438;2022-12-18T05:30:09;-6.20;99.90
19906;DHT22;10115;50.906;4.438;2022-12-18T05:32:35;-6.10;99.90
19906;DHT22;10115;50.906;4.438;2022-12-18T05:35:00;-6.10;99.90
19906;DHT22;10115;50.906;4.438;2022-12-18T05:37:26;-6.20;99.90
19906;DHT22;10115;50.906;4.438;2022-12-18T05:39:52;-6.30;99.90
19906;DHT22;10115;50.906;4.438;2022-12-18T05:42:17;-6.30;99.90
19906;DHT22;10115;50.906;4.438;2022-12-18T05:44:43;-6.20;99.90
19906;DHT22;10115;50.906;4.438;2022-12-18T05:47:09;-6.10;99.90
19906;DHT22;10115;50.906;4.438;2022-12-18T05:49:35;-6.10;99.90
19906;DHT22;10115;50.906;4.438;2022-12-18T05:52:01;-6.30;99.90
19906;DHT22;10115;50.906;4.438;2022-12-18T05:54:27;-6.20;99.90
19906;DHT22;10115;50.906;4.438;2022-12-18T05:56:53;-6.30;99.90
19906;DHT22;10115;50.906;4.438;2022-12-18T05:59:19;-6.10;99.90
19906;DHT22;10115;50.906;4.438;2022-12-18T06:01:46;-6.30;99.90
19906;DHT22;10115;50.906;4.438;2022-12-18T06:04:12;-6.30;99.90
19906;DHT22;10115;50.906;4.438;2022-12-18T06:06:38;-6.60;99.90
19906;DHT22;10115;50.906;4.438;2022-12-18T06:09:04;-6.80;99.90
19906;DHT22;10115;50.906;4.438;2022-12-18T06:11:35;-6.70;99.90
19906;DHT22;10115;50.906;4.438;2022-12-18T06:14:03;-6.70;99.90
19906;DHT22;10115;50.906;4.438;2022-12-18T06:16:29;-6.60;99.90
19906;DHT22;10115;50.906;4.438;2022-12-18T06:19:04;-6.50;99.90
19906;DHT22;10115;50.906;4.438;2022-12-18T06:21:30;-6.20;99.90
19906;DHT22;10115;50.906;4.438;2022-12-18T06:23:56;-6.30;99.90
19906;DHT22;10115;50.906;4.438;2022-12-18T06:26:22;-6.20;99.90
19906;DHT22;10115;50.906;4.438;2022-12-18T06:28:47;-6.10;99.90
19906;DHT22;10115;50.906;4.438;2022-12-18T06:31:13;-6.10;99.90
19906;DHT22;10115;50.906;4.438;2022-12-18T06:33:39;-6.10;99.90
19906;DHT22;10115;50.906;4.438;2022-12-18T06:36:10;-6.10;99.90
19906;DHT22;10115;50.906;4.438;2022-12-18T06:38:39;-5.90;99.90
19906;DHT22;10115;50.906;4.438;2022-12-18T06:41:10;-6.10;99.90
19906;DHT22;10115;50.906;4.438;2022-12-18T06:43:36;-6.00;99.90
19906;DHT22;10115;50.906;4.438;2022-12-18T06:46:03;-6.10;99.90
19906;DHT22;10115;50.906;4.438;2022-12-18T06:48:29;-6.20;99.90
19906;DHT22;10115;50.906;4.438;2022-12-18T06:50:55;-6.10;99.90
19906;DHT22;10115;50.906;4.438;2022-12-18T06:53:21;-6.00;99.90
19906;DHT22;10115;50.906;4.438;2022-12-18T06:55:47;-6.00;99.90
19906;DHT22;10115;50.906;4.438;2022-12-18T06:58:13;-5.90;99.90
19906;DHT22;10115;50.906;4.438;2022-12-18T07:00:38;-5.90;99.90
19906;DHT22;10115;50.906;4.438;2022-12-18T07:03:04;-5.80;99.90
19906;DHT22;10115;50.906;4.438;2022-12-18T07:05:29;-5.90;99.90
19906;DHT22;10115;50.906;4.438;2022-12-18T07:07:55;-6.00;99.90
19906;DHT22;10115;50.906;4.438;2022-12-18T07:10:21;-5.90;99.90
19906;DHT22;10115;50.906;4.438;2022-12-18T07:12:47;-5.90;99.90
19906;DHT22;10115;50.906;4.438;2022-12-18T07:15:13;-5.90;99.90
19906;DHT22;10115;50.906;4.438;2022-12-18T07:17:38;-5.90;99.90
19906;DHT22;10115;50.906;4.438;2022-12-18T07:20:04;-5.80;99.90
19906;DHT22;10115;50.906;4.438;2022-12-18T07:22:30;-6.00;99.90
19906;DHT22;10115;50.906;4.438;2022-12-18T07:24:56;-6.00;99.90
19906;DHT22;10115;50.906;4.438;2022-12-18T07:27:22;-6.00;99.90
19906;DHT22;10115;50.906;4.438;2022-12-18T07:29:48;-5.90;99.90
19906;DHT22;10115;50.906;4.438;2022-12-18T07:32:13;-5.90;99.90
19906;DHT22;10115;50.906;4.438;2022-12-18T07:34:39;-5.90;99.90
19906;DHT22;10115;50.906;4.438;2022-12-18T07:37:05;-5.90;99.90
19906;DHT22;10115;50.906;4.438;2022-12-18T07:39:31;-5.80;99.90
19906;DHT22;10115;50.906;4.438;2022-12-18T07:41:56;-5.90;99.90
19906;DHT22;10115;50.906;4.438;2022-12-18T07:44:42;-5.90;99.90
19906;DHT22;10115;50.906;4.438;2022-12-18T07:47:08;-6.00;99.90
19906;DHT22;10115;50.906;4.438;2022-12-18T07:49:34;-6.10;99.90
19906;DHT22;10115;50.906;4.438;2022-12-18T07:51:59;-6.00;99.90
19906;DHT22;10115;50.906;4.438;2022-12-18T07:54:25;-6.10;99.90
19906;DHT22;10115;50.906;4.438;2022-12-18T07:56:51;-6.00;99.90
19906;DHT22;10115;50.906;4.438;2022-12-18T07:59:18;-6.20;99.90
19906;DHT22;10115;50.906;4.438;2022-12-18T08:01:44;-6.00;99.90
19906;DHT22;10115;50.906;4.438;2022-12-18T08:04:09;-6.00;99.90
19906;DHT22;10115;50.906;4.438;2022-12-18T08:06:35;-5.90;99.90
19906;DHT22;10115;50.906;4.438;2022-12-18T08:09:02;-5.90;99.90
19906;DHT22;10115;50.906;4.438;2022-12-18T08:11:28;-5.90;99.90
19906;DHT22;10115;50.906;4.438;2022-12-18T08:13:54;-5.90;99.90
19906;DHT22;10115;50.906;4.438;2022-12-18T08:16:21;-5.80;99.90
19906;DHT22;10115;50.906;4.438;2022-12-18T08:18:47;-5.70;99.90
19906;DHT22;10115;50.906;4.438;2022-12-18T08:21:18;-5.50;99.90
19906;DHT22;10115;50.906;4.438;2022-12-18T08:23:44;-5.60;99.90
19906;DHT22;10115;50.906;4.438;2022-12-18T08:26:11;-5.30;99.90
19906;DHT22;10115;50.906;4.438;2022-12-18T08:28:36;-5.30;99.90
19906;DHT22;10115;50.906;4.438;2022-12-18T08:31:02;-5.20;99.90
19906;DHT22;10115;50.906;4.438;2022-12-18T08:33:28;-5.10;99.90
19906;DHT22;10115;50.906;4.438;2022-12-18T08:35:53;-4.80;99.90
19906;DHT22;10115;50.906;4.438;2022-12-18T08:38:19;-4.90;99.90
19906;DHT22;10115;50.906;4.438;2022-12-18T08:40:45;-4.90;99.90
19906;DHT22;10115;50.906;4.438;2022-12-18T08:43:11;-4.80;99.90
19906;DHT22;10115;50.906;4.438;2022-12-18T08:45:55;-4.50;99.90
19906;DHT22;10115;50.906;4.438;2022-12-18T08:48:21;-4.50;99.90
19906;DHT22;10115;50.906;4.438;2022-12-18T08:50:57;-4.30;99.90
19906;DHT22;10115;50.906;4.438;2022-12-18T08:53:23;-4.10;99.90
19906;DHT22;10115;50.906;4.438;2022-12-18T08:55:49;-3.90;99.90
19906;DHT22;10115;50.906;4.438;2022-12-18T08:58:15;-3.70;99.90
19906;DHT22;10115;50.906;4.438;2022-12-18T09:00:40;-3.70;99.90
19906;DHT22;10115;50.906;4.438;2022-12-18T09:03:14;-3.30;99.90
19906;DHT22;10115;50.906;4.438;2022-12-18T09:05:40;-3.30;99.90
19906;DHT22;10115;50.906;4.438;2022-12-18T09:08:05;-3.00;99.90
19906;DHT22;10115;50.906;4.438;2022-12-18T09:10:31;-3.20;99.90
19906;DHT22;10115;50.906;4.438;2022-12-18T09:12:57;-3.10;99.90
19906;DHT22;10115;50.906;4.438;2022-12-18T09:15:23;-2.90;99.90
19906;DHT22;10115;50.906;4.438;2022-12-18T09:17:49;-2.90;99.90
19906;DHT22;10115;50.906;4.438;2022-12-18T09:20:16;-2.60;99.90
19906;DHT22;10115;50.906;4.438;2022-12-18T09:22:42;-2.60;99.90
19906;DHT22;10115;50.906;4.438;2022-12-18T09:25:07;-2.50;99.90
19906;DHT22;10115;50.906;4.438;2022-12-18T09:27:34;-2.40;99.90
19906;DHT22;10115;50.906;4.438;2022-12-18T09:30:00;-2.00;99.90
19906;DHT22;10115;50.906;4.438;2022-12-18T09:32:26;-2.20;99.90
19906;DHT22;10115;50.906;4.438;2022-12-18T09:34:51;-1.90;99.90
19906;DHT22;10115;50.906;4.438;2022-12-18T09:37:17;-1.90;99.90
19906;DHT22;10115;50.906;4.438;2022-12-18T09:39:43;-1.60;99.90
19906;DHT22;10115;50.906;4.438;2022-12-18T09:42:21;-1.60;99.90
19906;DHT22;10115;50.906;4.438;2022-12-18T09:44:54;-1.60;99.90
19906;DHT22;10115;50.906;4.438;2022-12-18T09:47:32;-1.70;99.90
19906;DHT22;10115;50.906;4.438;2022-12-18T09:50:13;-1.80;99.90
19906;DHT22;10115;50.906;4.438;2022-12-18T09:52:45;-1.70;99.90
19906;DHT22;10115;50.906;4.438;2022-12-18T09:55:24;-1.60;99.90
19906;DHT22;10115;50.906;4.438;2022-12-18T10:00:35;-1.20;99.90
19906;DHT22;10115;50.906;4.438;2022-12-18T10:03:08;-1.20;99.90
19906;DHT22;10115;50.906;4.438;2022-12-18T10:08:23;-1.10;99.90
19906;DHT22;10115;50.906;4.438;2022-12-18T10:10:53;-1.10;99.90
19906;DHT22;10115;50.906;4.438;2022-12-18T10:21:02;-1.00;99.90
19906;DHT22;10115;50.906;4.438;2022-12-18T10:26:09;-1.10;99.90
19906;DHT22;10115;50.906;4.438;2022-12-18T10:28:36;-1.00;99.90
19906;DHT22;10115;50.906;4.438;2022-12-18T10:31:06;-0.90;99.90
19906;DHT22;10115;50.906;4.438;2022-12-18T10:33:33;-1.00;99.90
19906;DHT22;10115;50.906;4.438;2022-12-18T10:35:59;-0.90;99.90
19906;DHT22;10115;50.906;4.438;2022-12-18T10:38:30;-0.90;99.90
19906;DHT22;10115;50.906;4.438;2022-12-18T10:43:27;-0.70;99.90
19906;DHT22;10115;50.906;4.438;2022-12-18T10:46:17;-0.60;99.90
19906;DHT22;10115;50.906;4.438;2022-12-18T10:48:53;-0.50;99.90
19906;DHT22;10115;50.906;4.438;2022-12-18T10:51:25;-0.40;99.90
19906;DHT22;10115;50.906;4.438;2022-12-18T10:56:26;-0.20;99.90
19906;DHT22;10115;50.906;4.438;2022-12-18T10:59:04;0.00;99.90
19906;DHT22;10115;50.906;4.438;2022-12-18T11:01:50;-0.10;99.90
19906;DHT22;10115;50.906;4.438;2022-12-18T11:04:22;-0.10;99.90
19906;DHT22;10115;50.906;4.438;2022-12-18T11:06:55;-0.10;99.90
19906;DHT22;10115;50.906;4.438;2022-12-18T11:09:29;0.30;99.90
19906;DHT22;10115;50.906;4.438;2022-12-18T11:11:58;0.50;99.90
19906;DHT22;10115;50.906;4.438;2022-12-18T11:14:28;0.50;99.90
19906;DHT22;10115;50.906;4.438;2022-12-18T11:16:55;0.50;99.90
19906;DHT22;10115;50.906;4.438;2022-12-18T11:21:51;0.80;99.90
19906;DHT22;10115;50.906;4.438;2022-12-18T11:24:35;0.90;99.90
19906;DHT22;10115;50.906;4.438;2022-12-18T11:27:05;1.00;99.90
19906;DHT22;10115;50.906;4.438;2022-12-18T11:29:40;1.00;99.90
19906;DHT22;10115;50.906;4.438;2022-12-18T11:32:29;1.00;99.90
19906;DHT22;10115;50.906;4.438;2022-12-18T11:35:25;0.80;99.90
19906;DHT22;10115;50.906;4.438;2022-12-18T11:38:04;1.00;99.90
19906;DHT22;10115;50.906;4.438;2022-12-18T11:40:36;1.10;99.90
19906;DHT22;10115;50.906;4.438;2022-12-18T11:43:14;1.10;99.90
19906;DHT22;10115;50.906;4.438;2022-12-18T11:45:53;1.10;99.90
19906;DHT22;10115;50.906;4.438;2022-12-18T11:48:24;1.00;99.90
19906;DHT22;10115;50.906;4.438;2022-12-18T11:50:56;1.10;99.90
19906;DHT22;10115;50.906;4.438;2022-12-18T11:53:24;1.10;99.90
19906;DHT22;10115;50.906;4.438;2022-12-18T11:55:54;0.90;99.90
19906;DHT22;10115;50.906;4.438;2022-12-18T12:01:25;1.10;99.90
19906;DHT22;10115;50.906;4.438;2022-12-18T12:06:53;1.30;99.90
19906;DHT22;10115;50.906;4.438;2022-12-18T12:12:39;1.30;99.90
19906;DHT22;10115;50.906;4.438;2022-12-18T12:20:38;1.60;99.90
19906;DHT22;10115;50.906;4.438;2022-12-18T12:23:25;1.70;99.90
19906;DHT22;10115;50.906;4.438;2022-12-18T12:26:10;1.60;99.90
19906;DHT22;10115;50.906;4.438;2022-12-18T12:34:26;1.50;99.90
19906;DHT22;10115;50.906;4.438;2022-12-18T12:37:04;1.60;99.90
19906;DHT22;10115;50.906;4.438;2022-12-18T12:39:32;1.50;99.90
19906;DHT22;10115;50.906;4.438;2022-12-18T12:41:59;1.60;99.90
19906;DHT22;10115;50.906;4.438;2022-12-18T12:44:48;1.60;99.90
19906;DHT22;10115;50.906;4.438;2022-12-18T12:47:26;1.60;99.90
19906;DHT22;10115;50.906;4.438;2022-12-18T12:49:54;1.70;99.90
19906;DHT22;10115;50.906;4.438;2022-12-18T12:52:37;1.80;99.90
19906;DHT22;10115;50.906;4.438;2022-12-18T12:55:07;1.90;99.90
19906;DHT22;10115;50.906;4.438;2022-12-18T12:57:41;1.60;99.90
19906;DHT22;10115;50.906;4.438;2022-12-18T13:00:12;1.60;99.90
19906;DHT22;10115;50.906;4.438;2022-12-18T13:08:03;1.80;99.90
19906;DHT22;10115;50.906;4.438;2022-12-18T13:10:32;1.80;99.90
19906;DHT22;10115;50.906;4.438;2022-12-18T13:13:05;2.10;99.90
19906;DHT22;10115;50.906;4.438;2022-12-18T13:18:21;1.90;99.90
19906;DHT22;10115;50.906;4.438;2022-12-18T13:23:28;1.80;99.90
19906;DHT22;10115;50.906;4.438;2022-12-18T13:31:02;2.20;99.90
19906;DHT22;10115;50.906;4.438;2022-12-18T13:36:13;2.20;99.90
19906;DHT22;10115;50.906;4.438;2022-12-18T13:38:41;2.00;99.90
19906;DHT22;10115;50.906;4.438;2022-12-18T13:41:26;1.80;99.90
19906;DHT22;10115;50.906;4.438;2022-12-18T13:43:54;1.60;99.90
19906;DHT22;10115;50.906;4.438;2022-12-18T13:46:29;1.70;99.90
19906;DHT22;10115;50.906;4.438;2022-12-18T13:51:44;1.90;99.90
19906;DHT22;10115;50.906;4.438;2022-12-18T13:56:59;2.10;99.90
19906;DHT22;10115;50.906;4.438;2022-12-18T13:59:33;2.00;99.90
19906;DHT22;10115;50.906;4.438;2022-12-18T14:02:05;2.40;99.90
19906;DHT22;10115;50.906;4.438;2022-12-18T14:04:35;2.50;99.90
19906;DHT22;10115;50.906;4.438;2022-12-18T14:09:31;2.60;99.90
19906;DHT22;10115;50.906;4.438;2022-12-18T14:11:59;1.90;99.90
19906;DHT22;10115;50.906;4.438;2022-12-18T14:14:48;1.90;99.90
19906;DHT22;10115;50.906;4.438;2022-12-18T14:17:16;2.00;99.90
19906;DHT22;10115;50.906;4.438;2022-12-18T14:19:48;1.90;99.90
19906;DHT22;10115;50.906;4.438;2022-12-18T14:22:25;1.70;99.90
19906;DHT22;10115;50.906;4.438;2022-12-18T14:28:30;1.40;99.90
19906;DHT22;10115;50.906;4.438;2022-12-18T14:30:35;1.50;99.90
19906;DHT22;10115;50.906;4.438;2022-12-18T14:33:13;1.80;99.90
19906;DHT22;10115;50.906;4.438;2022-12-18T14:38:30;1.90;99.90
19906;DHT22;10115;50.906;4.438;2022-12-18T14:41:04;1.80;99.90
19906;DHT22;10115;50.906;4.438;2022-12-18T14:43:38;2.00;99.90
19906;DHT22;10115;50.906;4.438;2022-12-18T14:48:59;1.70;99.90
19906;DHT22;10115;50.906;4.438;2022-12-18T14:51:27;1.80;99.90
19906;DHT22;10115;50.906;4.438;2022-12-18T14:53:56;1.70;99.90
19906;DHT22;10115;50.906;4.438;2022-12-18T14:56:44;1.80;99.90
19906;DHT22;10115;50.906;4.438;2022-12-18T14:59:23;1.70;99.90
19906;DHT22;10115;50.906;4.438;2022-12-18T15:01:58;1.60;99.90
19906;DHT22;10115;50.906;4.438;2022-12-18T15:04:36;1.40;99.90
19906;DHT22;10115;50.906;4.438;2022-12-18T15:07:22;1.30;99.90
19906;DHT22;10115;50.906;4.438;2022-12-18T15:12:39;1.40;99.90
19906;DHT22;10115;50.906;4.438;2022-12-18T15:15:43;1.40;99.90
19906;DHT22;10115;50.906;4.438;2022-12-18T15:18:04;1.40;99.90
19906;DHT22;10115;50.906;4.438;2022-12-18T15:23:35;1.50;99.90
19906;DHT22;10115;50.906;4.438;2022-12-18T15:26:06;1.60;99.90
19906;DHT22;10115;50.906;4.438;2022-12-18T15:28:48;1.50;99.90
19906;DHT22;10115;50.906;4.438;2022-12-18T15:34:00;1.40;99.90
19906;DHT22;10115;50.906;4.438;2022-12-18T15:36:29;1.50;99.90
19906;DHT22;10115;50.906;4.438;2022-12-18T15:38:56;1.50;99.90
19906;DHT22;10115;50.906;4.438;2022-12-18T15:41:25;1.40;99.90
19906;DHT22;10115;50.906;4.438;2022-12-18T15:43:52;1.40;99.90
19906;DHT22;10115;50.906;4.438;2022-12-18T15:46:20;1.30;99.90
19906;DHT22;10115;50.906;4.438;2022-12-18T15:48:48;1.40;99.90
19906;DHT22;10115;50.906;4.438;2022-12-18T15:51:23;1.70;99.90
19906;DHT22;10115;50.906;4.438;2022-12-18T15:53:52;1.70;99.90
19906;DHT22;10115;50.906;4.438;2022-12-18T15:56:18;1.60;99.90
19906;DHT22;10115;50.906;4.438;2022-12-18T15:59:08;1.60;99.90
19906;DHT22;10115;50.906;4.438;2022-12-18T16:01:35;1.50;99.90
19906;DHT22;10115;50.906;4.438;2022-12-18T16:04:01;1.50;99.90
19906;DHT22;10115;50.906;4.438;2022-12-18T16:06:26;1.50;99.90
19906;DHT22;10115;50.906;4.438;2022-12-18T16:08:52;1.50;99.90
19906;DHT22;10115;50.906;4.438;2022-12-18T16:11:26;1.50;99.90
19906;DHT22;10115;50.906;4.438;2022-12-18T16:14:22;1.50;99.90
19906;DHT22;10115;50.906;4.438;2022-12-18T16:16:50;1.60;99.90
19906;DHT22;10115;50.906;4.438;2022-12-18T16:19:17;1.70;99.90
19906;DHT22;10115;50.906;4.438;2022-12-18T16:21:43;1.80;99.90
19906;DHT22;10115;50.906;4.438;2022-12-18T16:24:15;1.80;99.90
19906;DHT22;10115;50.906;4.438;2022-12-18T16:26:42;1.80;99.90
19906;DHT22;10115;50.906;4.438;2022-12-18T16:29:08;1.80;99.90
19906;DHT22;10115;50.906;4.438;2022-12-18T16:31:34;1.90;99.90
19906;DHT22;10115;50.906;4.438;2022-12-18T16:37:01;1.70;99.90
19906;DHT22;10115;50.906;4.438;2022-12-18T16:39:28;1.80;99.90
19906;DHT22;10115;50.906;4.438;2022-12-18T16:41:54;1.80;99.90
19906;DHT22;10115;50.906;4.438;2022-12-18T16:44:19;1.70;99.90
19906;DHT22;10115;50.906;4.438;2022-12-18T16:46:46;1.80;99.90
19906;DHT22;10115;50.906;4.438;2022-12-18T16:49:16;2.00;99.90
19906;DHT22;10115;50.906;4.438;2022-12-18T16:51:42;2.00;99.90
19906;DHT22;10115;50.906;4.438;2022-12-18T16:54:09;1.90;99.90
19906;DHT22;10115;50.906;4.438;2022-12-18T16:56:35;1.90;99.90
19906;DHT22;10115;50.906;4.438;2022-12-18T16:59:02;1.80;99.90
19906;DHT22;10115;50.906;4.438;2022-12-18T17:01:29;1.80;99.90
19906;DHT22;10115;50.906;4.438;2022-12-18T17:04:01;2.00;99.90
19906;DHT22;10115;50.906;4.438;2022-12-18T17:06:29;2.10;99.90
19906;DHT22;10115;50.906;4.438;2022-12-18T17:09:00;2.20;99.90
19906;DHT22;10115;50.906;4.438;2022-12-18T17:11:27;2.10;99.90
19906;DHT22;10115;50.906;4.438;2022-12-18T17:13:54;2.20;99.90
19906;DHT22;10115;50.906;4.438;2022-12-18T17:16:21;2.40;99.90
19906;DHT22;10115;50.906;4.438;2022-12-18T17:18:46;2.40;99.90
19906;DHT22;10115;50.906;4.438;2022-12-18T17:21:13;2.30;99.90
19906;DHT22;10115;50.906;4.438;2022-12-18T17:23:41;2.40;99.90
19906;DHT22;10115;50.906;4.438;2022-12-18T17:26:08;2.30;99.90
19906;DHT22;10115;50.906;4.438;2022-12-18T17:28:36;2.30;99.90
19906;DHT22;10115;50.906;4.438;2022-12-18T17:31:21;2.30;99.90
19906;DHT22;10115;50.906;4.438;2022-12-18T17:33:48;2.50;99.90
19906;DHT22;10115;50.906;4.438;2022-12-18T17:36:14;2.60;99.90
19906;DHT22;10115;50.906;4.438;2022-12-18T17:38:40;2.50;99.90
19906;DHT22;10115;50.906;4.438;2022-12-18T17:41:09;2.40;99.90
19906;DHT22;10115;50.906;4.438;2022-12-18T17:43:35;2.40;99.90
19906;DHT22;10115;50.906;4.438;2022-12-18T17:46:02;2.30;99.90
19906;DHT22;10115;50.906;4.438;2022-12-18T17:48:28;2.40;99.90